Terminal Aerodrome Forecast
Issued by NWS Atlanta, GA

Home | Current Version | Previous Version | Text Only | Print | Product List | Glossary On
Versions: 1 2 3 4 5 6 7 8 9 10 11 12 13 14 15 16 17 18 19 20
000
FTUS42 KFFC 071733
TAFCSG
TAF
KCSG 071733Z 0718/0818 00000KT P6SM BKN020
     FM080000 29004KT P6SM BKN015
     FM081300 33006KT P6SM BKN015
     FM081600 33008G16KT P6SM SCT015 BKN025=

USA.gov is the U.S. government's official web portal to all federal, state and local government web resources and services.